Terminal Aerodrome Forecast
Issued by NWS Louisville, KY

Home | Current Version | Previous Version | Text Only | Print | Product List | Glossary On
Versions: 1 2 3 4 5 6 7 8 9 10 11 12 13 14 15 16 17 18 19
000
FTUS43 KLMK 220525
TAFSDF
TAF
KSDF 220525Z 2206/2312 03011KT P6SM OVC023
      TEMPO 2206/2208 BKN008
     FM221100 03013KT 6SM -SHRA BR OVC017
     FM221400 05013KT P6SM OVC023
     FM221600 05011G21KT 6SM -SHRA BR OVC014
     FM221900 04012G21KT P6SM OVC023
     FM230000 04011KT P6SM OVC024
     FM230600 03010KT P6SM BKN060=

USA.gov is the U.S. government's official web portal to all federal, state and local government web resources and services.